St Ives Cornwall, United Kingdom
Current Conditions -  °F | °C
As of 6:50 AM on Tuesday 21 Oct 2014 (Local Time) from EGDR Reporting Station
Broken Clouds Broken Clouds  
Wind Chill: 55°   Ceiling: 3400
Heat Index: 55°   Visibility: 6mi
Dew Point: 50°   Wind: 20mph
Humidity: 82%   Direction: 290°WNW
Pressure: 29.8"   Gusts: 35mph
Location:  50.21°N, 5.48°W
Report Text: EGDR 210550Z 29017G30KT 9999 FEW012 SCT022 BKN034 13/10 Q1009 REDZ WHT TEMPO -SHRA SCT012 GRN
Loading
Personal Weather Stations






























Interactive Weather Map
Tropical Storm Tracking
New forecast layout! Learn more

10-Day Weather Forecast

Advertisements
Track Severe Weather on mobile